sensor_id;sensor_type;location;lat;lon;timestamp;P1;durP1;ratioP1;P2;durP2;ratioP2
70532;SDS011;58088;51.186;17.130;2022-08-19T00:01:49;12.20;;;9.10;;
70532;SDS011;58088;51.186;17.130;2022-08-19T00:04:20;12.90;;;8.00;;
70532;SDS011;58088;51.186;17.130;2022-08-19T00:06:48;11.00;;;7.80;;
70532;SDS011;58088;51.186;17.130;2022-08-19T00:09:17;13.10;;;9.10;;
70532;SDS011;58088;51.186;17.130;2022-08-19T00:11:45;12.20;;;8.30;;
70532;SDS011;58088;51.186;17.130;2022-08-19T00:14:13;11.70;;;8.00;;
70532;SDS011;58088;51.186;17.130;2022-08-19T00:16:43;16.50;;;9.20;;
70532;SDS011;58088;51.186;17.130;2022-08-19T00:19:12;13.50;;;9.20;;
70532;SDS011;58088;51.186;17.130;2022-08-19T00:21:38;13.30;;;9.00;;
70532;SDS011;58088;51.186;17.130;2022-08-19T00:24:07;12.20;;;8.80;;
70532;SDS011;58088;51.186;17.130;2022-08-19T00:26:35;13.50;;;8.70;;
70532;SDS011;58088;51.186;17.130;2022-08-19T00:29:02;13.30;;;8.90;;
70532;SDS011;58088;51.186;17.130;2022-08-19T00:31:30;12.50;;;8.00;;
70532;SDS011;58088;51.186;17.130;2022-08-19T00:33:57;15.40;;;9.30;;
70532;SDS011;58088;51.186;17.130;2022-08-19T00:36:23;15.40;;;8.90;;
70532;SDS011;58088;51.186;17.130;2022-08-19T00:38:49;12.90;;;8.60;;
70532;SDS011;58088;51.186;17.130;2022-08-19T00:41:19;13.50;;;9.00;;
70532;SDS011;58088;51.186;17.130;2022-08-19T00:44:20;12.60;;;8.70;;
70532;SDS011;58088;51.186;17.130;2022-08-19T00:46:50;13.30;;;9.10;;
70532;SDS011;58088;51.186;17.130;2022-08-19T00:49:25;13.10;;;9.10;;
70532;SDS011;58088;51.186;17.130;2022-08-19T00:52:11;12.90;;;8.20;;
70532;SDS011;58088;51.186;17.130;2022-08-19T00:54:41;11.20;;;7.70;;
70532;SDS011;58088;51.186;17.130;2022-08-19T00:57:09;13.50;;;8.30;;
70532;SDS011;58088;51.186;17.130;2022-08-19T00:59:41;13.50;;;8.30;;
70532;SDS011;58088;51.186;17.130;2022-08-19T01:02:08;14.80;;;8.20;;
70532;SDS011;58088;51.186;17.130;2022-08-19T01:04:53;12.70;;;8.70;;
70532;SDS011;58088;51.186;17.130;2022-08-19T01:07:21;12.00;;;7.60;;
70532;SDS011;58088;51.186;17.130;2022-08-19T01:09:47;14.10;;;7.50;;
70532;SDS011;58088;51.186;17.130;2022-08-19T01:12:14;13.30;;;7.80;;
70532;SDS011;58088;51.186;17.130;2022-08-19T01:14:41;12.50;;;7.80;;
70532;SDS011;58088;51.186;17.130;2022-08-19T01:17:09;13.10;;;8.20;;
70532;SDS011;58088;51.186;17.130;2022-08-19T01:19:39;14.00;;;7.50;;
70532;SDS011;58088;51.186;17.130;2022-08-19T01:22:12;11.10;;;7.90;;
70532;SDS011;58088;51.186;17.130;2022-08-19T01:24:50;10.30;;;7.20;;
70532;SDS011;58088;51.186;17.130;2022-08-19T01:27:17;11.40;;;7.80;;
70532;SDS011;58088;51.186;17.130;2022-08-19T01:29:45;12.10;;;7.70;;
70532;SDS011;58088;51.186;17.130;2022-08-19T01:32:14;13.90;;;7.90;;
70532;SDS011;58088;51.186;17.130;2022-08-19T01:34:42;12.90;;;7.20;;
70532;SDS011;58088;51.186;17.130;2022-08-19T01:37:13;13.00;;;8.00;;
70532;SDS011;58088;51.186;17.130;2022-08-19T01:39:41;13.80;;;8.60;;
70532;SDS011;58088;51.186;17.130;2022-08-19T01:42:09;10.50;;;7.60;;
70532;SDS011;58088;51.186;17.130;2022-08-19T01:44:39;13.10;;;7.90;;
70532;SDS011;58088;51.186;17.130;2022-08-19T01:47:08;11.20;;;7.80;;
70532;SDS011;58088;51.186;17.130;2022-08-19T01:49:35;11.90;;;7.90;;
70532;SDS011;58088;51.186;17.130;2022-08-19T01:52:02;11.20;;;7.90;;
70532;SDS011;58088;51.186;17.130;2022-08-19T01:54:30;11.80;;;7.60;;
70532;SDS011;58088;51.186;17.130;2022-08-19T01:57:06;11.70;;;8.00;;
70532;SDS011;58088;51.186;17.130;2022-08-19T01:59:34;10.90;;;7.20;;
70532;SDS011;58088;51.186;17.130;2022-08-19T02:02:04;12.10;;;7.80;;
70532;SDS011;58088;51.186;17.130;2022-08-19T02:04:34;11.20;;;7.60;;
70532;SDS011;58088;51.186;17.130;2022-08-19T02:07:04;12.20;;;7.40;;
70532;SDS011;58088;51.186;17.130;2022-08-19T02:09:32;12.50;;;7.70;;
70532;SDS011;58088;51.186;17.130;2022-08-19T02:11:59;12.90;;;7.60;;
70532;SDS011;58088;51.186;17.130;2022-08-19T02:14:26;14.20;;;8.30;;
70532;SDS011;58088;51.186;17.130;2022-08-19T02:16:52;11.50;;;7.60;;
70532;SDS011;58088;51.186;17.130;2022-08-19T02:19:18;10.90;;;7.80;;
70532;SDS011;58088;51.186;17.130;2022-08-19T02:21:45;12.80;;;7.60;;
70532;SDS011;58088;51.186;17.130;2022-08-19T02:24:11;12.00;;;7.70;;
70532;SDS011;58088;51.186;17.130;2022-08-19T02:26:38;12.40;;;7.90;;
70532;SDS011;58088;51.186;17.130;2022-08-19T02:29:04;11.60;;;8.00;;
70532;SDS011;58088;51.186;17.130;2022-08-19T02:31:30;11.90;;;8.20;;
70532;SDS011;58088;51.186;17.130;2022-08-19T02:33:57;12.80;;;8.50;;
70532;SDS011;58088;51.186;17.130;2022-08-19T02:36:24;13.20;;;8.30;;
70532;SDS011;58088;51.186;17.130;2022-08-19T02:38:51;12.40;;;8.50;;
70532;SDS011;58088;51.186;17.130;2022-08-19T02:41:21;11.70;;;7.70;;
70532;SDS011;58088;51.186;17.130;2022-08-19T02:43:49;12.80;;;8.50;;
70532;SDS011;58088;51.186;17.130;2022-08-19T02:46:24;12.00;;;8.30;;
70532;SDS011;58088;51.186;17.130;2022-08-19T02:48:57;12.20;;;8.40;;
70532;SDS011;58088;51.186;17.130;2022-08-19T02:51:31;12.60;;;8.40;;
70532;SDS011;58088;51.186;17.130;2022-08-19T02:54:00;11.10;;;8.00;;
70532;SDS011;58088;51.186;17.130;2022-08-19T02:56:27;12.80;;;8.70;;
70532;SDS011;58088;51.186;17.130;2022-08-19T02:58:54;13.30;;;8.40;;
70532;SDS011;58088;51.186;17.130;2022-08-19T03:01:30;14.40;;;8.90;;
70532;SDS011;58088;51.186;17.130;2022-08-19T03:03:59;13.40;;;8.30;;
70532;SDS011;58088;51.186;17.130;2022-08-19T03:06:27;11.80;;;7.80;;
70532;SDS011;58088;51.186;17.130;2022-08-19T03:08:54;13.70;;;8.40;;
70532;SDS011;58088;51.186;17.130;2022-08-19T03:11:25;14.40;;;9.60;;
70532;SDS011;58088;51.186;17.130;2022-08-19T03:13:54;13.60;;;8.80;;
70532;SDS011;58088;51.186;17.130;2022-08-19T03:16:22;17.30;;;9.10;;
70532;SDS011;58088;51.186;17.130;2022-08-19T03:18:50;15.70;;;9.50;;
70532;SDS011;58088;51.186;17.130;2022-08-19T03:21:19;13.20;;;8.80;;
70532;SDS011;58088;51.186;17.130;2022-08-19T03:23:50;13.70;;;8.40;;
70532;SDS011;58088;51.186;17.130;2022-08-19T03:26:20;12.40;;;8.40;;
70532;SDS011;58088;51.186;17.130;2022-08-19T03:28:46;12.50;;;8.70;;
70532;SDS011;58088;51.186;17.130;2022-08-19T03:31:17;12.40;;;8.30;;
70532;SDS011;58088;51.186;17.130;2022-08-19T03:33:45;13.50;;;8.60;;
70532;SDS011;58088;51.186;17.130;2022-08-19T03:36:14;14.80;;;9.30;;
70532;SDS011;58088;51.186;17.130;2022-08-19T03:38:47;12.70;;;8.70;;
70532;SDS011;58088;51.186;17.130;2022-08-19T03:41:48;15.10;;;8.20;;
70532;SDS011;58088;51.186;17.130;2022-08-19T03:44:20;16.30;;;9.40;;
70532;SDS011;58088;51.186;17.130;2022-08-19T03:46:50;14.40;;;9.40;;
70532;SDS011;58088;51.186;17.130;2022-08-19T03:49:22;15.40;;;9.50;;
70532;SDS011;58088;51.186;17.130;2022-08-19T03:51:50;15.60;;;9.50;;
70532;SDS011;58088;51.186;17.130;2022-08-19T03:54:20;14.90;;;9.60;;
70532;SDS011;58088;51.186;17.130;2022-08-19T03:56:53;17.10;;;10.40;;
70532;SDS011;58088;51.186;17.130;2022-08-19T03:59:26;14.40;;;9.90;;
70532;SDS011;58088;51.186;17.130;2022-08-19T04:01:57;15.70;;;10.00;;
70532;SDS011;58088;51.186;17.130;2022-08-19T04:04:25;14.30;;;9.70;;
70532;SDS011;58088;51.186;17.130;2022-08-19T04:06:52;14.80;;;10.00;;
70532;SDS011;58088;51.186;17.130;2022-08-19T04:09:19;13.50;;;9.50;;
70532;SDS011;58088;51.186;17.130;2022-08-19T04:11:50;14.80;;;9.80;;
70532;SDS011;58088;51.186;17.130;2022-08-19T04:14:22;14.70;;;9.80;;
70532;SDS011;58088;51.186;17.130;2022-08-19T04:16:51;13.80;;;9.60;;
70532;SDS011;58088;51.186;17.130;2022-08-19T04:19:18;17.60;;;10.30;;
70532;SDS011;58088;51.186;17.130;2022-08-19T04:21:49;14.80;;;10.10;;
70532;SDS011;58088;51.186;17.130;2022-08-19T04:24:17;16.30;;;10.40;;
70532;SDS011;58088;51.186;17.130;2022-08-19T04:26:44;16.00;;;10.20;;
70532;SDS011;58088;51.186;17.130;2022-08-19T04:29:14;17.10;;;10.10;;
70532;SDS011;58088;51.186;17.130;2022-08-19T04:31:43;15.90;;;9.50;;
70532;SDS011;58088;51.186;17.130;2022-08-19T04:34:12;14.70;;;9.30;;
70532;SDS011;58088;51.186;17.130;2022-08-19T04:36:42;14.10;;;9.40;;
70532;SDS011;58088;51.186;17.130;2022-08-19T04:39:13;15.70;;;10.20;;
70532;SDS011;58088;51.186;17.130;2022-08-19T04:41:43;14.00;;;9.40;;
70532;SDS011;58088;51.186;17.130;2022-08-19T04:44:42;14.80;;;10.00;;
70532;SDS011;58088;51.186;17.130;2022-08-19T04:47:08;15.20;;;10.50;;
70532;SDS011;58088;51.186;17.130;2022-08-19T04:49:37;15.60;;;10.40;;
70532;SDS011;58088;51.186;17.130;2022-08-19T04:52:06;16.60;;;10.30;;
70532;SDS011;58088;51.186;17.130;2022-08-19T04:54:36;14.50;;;11.00;;
70532;SDS011;58088;51.186;17.130;2022-08-19T04:57:03;18.00;;;10.60;;
70532;SDS011;58088;51.186;17.130;2022-08-19T04:59:32;15.70;;;10.30;;
70532;SDS011;58088;51.186;17.130;2022-08-19T05:01:59;13.50;;;10.10;;
70532;SDS011;58088;51.186;17.130;2022-08-19T05:04:25;14.50;;;9.60;;
70532;SDS011;58088;51.186;17.130;2022-08-19T05:06:51;14.60;;;9.70;;
70532;SDS011;58088;51.186;17.130;2022-08-19T05:09:19;12.80;;;10.30;;
70532;SDS011;58088;51.186;17.130;2022-08-19T05:11:46;14.90;;;10.20;;
70532;SDS011;58088;51.186;17.130;2022-08-19T05:14:15;14.50;;;9.70;;
70532;SDS011;58088;51.186;17.130;2022-08-19T05:16:41;12.80;;;9.80;;
70532;SDS011;58088;51.186;17.130;2022-08-19T05:19:08;13.70;;;9.80;;
70532;SDS011;58088;51.186;17.130;2022-08-19T05:21:53;13.70;;;10.50;;
70532;SDS011;58088;51.186;17.130;2022-08-19T05:24:41;14.70;;;10.60;;
70532;SDS011;58088;51.186;17.130;2022-08-19T05:27:08;17.70;;;11.00;;
70532;SDS011;58088;51.186;17.130;2022-08-19T05:29:34;16.10;;;10.60;;
70532;SDS011;58088;51.186;17.130;2022-08-19T05:32:05;15.70;;;10.90;;
70532;SDS011;58088;51.186;17.130;2022-08-19T05:34:37;17.20;;;11.20;;
70532;SDS011;58088;51.186;17.130;2022-08-19T05:37:05;16.50;;;9.70;;
70532;SDS011;58088;51.186;17.130;2022-08-19T05:39:36;15.70;;;10.70;;
70532;SDS011;58088;51.186;17.130;2022-08-19T05:42:08;14.20;;;9.30;;
70532;SDS011;58088;51.186;17.130;2022-08-19T05:44:42;16.70;;;11.70;;
70532;SDS011;58088;51.186;17.130;2022-08-19T05:47:15;17.70;;;11.90;;
70532;SDS011;58088;51.186;17.130;2022-08-19T05:49:47;17.20;;;10.80;;
70532;SDS011;58088;51.186;17.130;2022-08-19T05:52:21;17.00;;;11.70;;
70532;SDS011;58088;51.186;17.130;2022-08-19T05:54:48;14.30;;;10.80;;
70532;SDS011;58088;51.186;17.130;2022-08-19T05:57:18;15.70;;;11.30;;
70532;SDS011;58088;51.186;17.130;2022-08-19T05:59:56;16.40;;;11.90;;
70532;SDS011;58088;51.186;17.130;2022-08-19T06:02:38;17.00;;;11.00;;
70532;SDS011;58088;51.186;17.130;2022-08-19T06:05:07;19.50;;;12.80;;
70532;SDS011;58088;51.186;17.130;2022-08-19T06:07:36;16.80;;;11.20;;
70532;SDS011;58088;51.186;17.130;2022-08-19T06:10:07;18.30;;;12.00;;
70532;SDS011;58088;51.186;17.130;2022-08-19T06:12:36;17.10;;;11.30;;
70532;SDS011;58088;51.186;17.130;2022-08-19T06:15:09;16.90;;;11.70;;
70532;SDS011;58088;51.186;17.130;2022-08-19T06:17:37;17.90;;;11.40;;
70532;SDS011;58088;51.186;17.130;2022-08-19T06:20:06;16.10;;;11.40;;
70532;SDS011;58088;51.186;17.130;2022-08-19T06:22:39;15.70;;;11.60;;
70532;SDS011;58088;51.186;17.130;2022-08-19T06:25:07;16.60;;;11.10;;
70532;SDS011;58088;51.186;17.130;2022-08-19T06:27:35;16.20;;;10.80;;
70532;SDS011;58088;51.186;17.130;2022-08-19T06:30:05;17.20;;;11.70;;
70532;SDS011;58088;51.186;17.130;2022-08-19T06:32:37;17.40;;;11.40;;
70532;SDS011;58088;51.186;17.130;2022-08-19T06:35:07;16.60;;;11.40;;
70532;SDS011;58088;51.186;17.130;2022-08-19T06:37:38;16.90;;;11.50;;
70532;SDS011;58088;51.186;17.130;2022-08-19T06:40:09;16.10;;;11.20;;
70532;SDS011;58088;51.186;17.130;2022-08-19T06:42:40;15.90;;;11.10;;
70532;SDS011;58088;51.186;17.130;2022-08-19T06:45:11;18.60;;;11.50;;
70532;SDS011;58088;51.186;17.130;2022-08-19T06:47:41;17.20;;;11.10;;
70532;SDS011;58088;51.186;17.130;2022-08-19T06:50:15;17.20;;;11.30;;
70532;SDS011;58088;51.186;17.130;2022-08-19T06:52:45;17.60;;;11.60;;
70532;SDS011;58088;51.186;17.130;2022-08-19T06:55:12;14.30;;;10.80;;
70532;SDS011;58088;51.186;17.130;2022-08-19T06:57:38;16.20;;;11.10;;
70532;SDS011;58088;51.186;17.130;2022-08-19T07:00:06;18.30;;;10.60;;
70532;SDS011;58088;51.186;17.130;2022-08-19T07:02:35;17.10;;;11.00;;
70532;SDS011;58088;51.186;17.130;2022-08-19T07:05:03;16.00;;;10.10;;
70532;SDS011;58088;51.186;17.130;2022-08-19T07:07:31;15.40;;;10.70;;
70532;SDS011;58088;51.186;17.130;2022-08-19T07:10:00;16.00;;;10.90;;
70532;SDS011;58088;51.186;17.130;2022-08-19T07:12:29;16.50;;;10.50;;
70532;SDS011;58088;51.186;17.130;2022-08-19T07:14:58;15.80;;;10.60;;
70532;SDS011;58088;51.186;17.130;2022-08-19T07:17:25;16.30;;;10.10;;
70532;SDS011;58088;51.186;17.130;2022-08-19T07:19:51;14.50;;;10.30;;
70532;SDS011;58088;51.186;17.130;2022-08-19T07:22:18;13.60;;;10.20;;
70532;SDS011;58088;51.186;17.130;2022-08-19T07:24:46;14.70;;;10.80;;
70532;SDS011;58088;51.186;17.130;2022-08-19T07:27:13;16.70;;;10.40;;
70532;SDS011;58088;51.186;17.130;2022-08-19T07:29:39;13.20;;;10.40;;
70532;SDS011;58088;51.186;17.130;2022-08-19T07:32:06;12.20;;;9.50;;
70532;SDS011;58088;51.186;17.130;2022-08-19T07:34:33;14.00;;;9.70;;
70532;SDS011;58088;51.186;17.130;2022-08-19T07:37:06;15.00;;;9.20;;
70532;SDS011;58088;51.186;17.130;2022-08-19T07:39:34;13.50;;;10.10;;
70532;SDS011;58088;51.186;17.130;2022-08-19T07:42:06;14.70;;;9.60;;
70532;SDS011;58088;51.186;17.130;2022-08-19T07:44:35;14.90;;;9.50;;
70532;SDS011;58088;51.186;17.130;2022-08-19T07:47:04;13.80;;;9.60;;
70532;SDS011;58088;51.186;17.130;2022-08-19T07:49:31;13.40;;;9.40;;
70532;SDS011;58088;51.186;17.130;2022-08-19T07:52:00;13.40;;;9.50;;
70532;SDS011;58088;51.186;17.130;2022-08-19T07:54:32;12.50;;;9.10;;
70532;SDS011;58088;51.186;17.130;2022-08-19T07:57:02;15.40;;;9.60;;
70532;SDS011;58088;51.186;17.130;2022-08-19T07:59:29;15.10;;;9.20;;
70532;SDS011;58088;51.186;17.130;2022-08-19T08:01:57;13.70;;;9.10;;
70532;SDS011;58088;51.186;17.130;2022-08-19T08:04:26;12.50;;;9.10;;
70532;SDS011;58088;51.186;17.130;2022-08-19T08:07:12;16.70;;;9.30;;
70532;SDS011;58088;51.186;17.130;2022-08-19T08:09:57;17.20;;;9.50;;
70532;SDS011;58088;51.186;17.130;2022-08-19T08:12:37;14.30;;;9.50;;
70532;SDS011;58088;51.186;17.130;2022-08-19T08:15:13;13.60;;;9.00;;
70532;SDS011;58088;51.186;17.130;2022-08-19T08:17:44;16.90;;;9.10;;
70532;SDS011;58088;51.186;17.130;2022-08-19T08:20:12;19.00;;;9.00;;
70532;SDS011;58088;51.186;17.130;2022-08-19T08:22:43;14.40;;;8.70;;
70532;SDS011;58088;51.186;17.130;2022-08-19T08:25:29;10.70;;;7.40;;
70532;SDS011;58088;51.186;17.130;2022-08-19T08:27:57;14.20;;;8.40;;
70532;SDS011;58088;51.186;17.130;2022-08-19T08:30:27;14.00;;;8.80;;
70532;SDS011;58088;51.186;17.130;2022-08-19T08:32:55;12.60;;;8.20;;
70532;SDS011;58088;51.186;17.130;2022-08-19T08:35:24;13.50;;;8.20;;
70532;SDS011;58088;51.186;17.130;2022-08-19T08:37:52;12.10;;;9.00;;
70532;SDS011;58088;51.186;17.130;2022-08-19T08:43:35;13.40;;;8.30;;
70532;SDS011;58088;51.186;17.130;2022-08-19T08:46:45;13.90;;;8.60;;
70532;SDS011;58088;51.186;17.130;2022-08-19T08:49:30;11.80;;;8.20;;
70532;SDS011;58088;51.186;17.130;2022-08-19T08:52:36;14.10;;;8.60;;
70532;SDS011;58088;51.186;17.130;2022-08-19T08:55:11;15.30;;;8.90;;
70532;SDS011;58088;51.186;17.130;2022-08-19T09:00:22;13.20;;;8.10;;
70532;SDS011;58088;51.186;17.130;2022-08-19T09:02:53;13.10;;;8.80;;
70532;SDS011;58088;51.186;17.130;2022-08-19T09:05:21;15.20;;;8.50;;
70532;SDS011;58088;51.186;17.130;2022-08-19T09:08:06;12.50;;;8.30;;
70532;SDS011;58088;51.186;17.130;2022-08-19T09:10:43;10.80;;;7.90;;
70532;SDS011;58088;51.186;17.130;2022-08-19T09:16:24;11.60;;;7.80;;
70532;SDS011;58088;51.186;17.130;2022-08-19T09:18:56;11.90;;;8.30;;
70532;SDS011;58088;51.186;17.130;2022-08-19T09:21:26;12.40;;;7.50;;
70532;SDS011;58088;51.186;17.130;2022-08-19T09:23:53;12.90;;;8.30;;
70532;SDS011;58088;51.186;17.130;2022-08-19T09:26:21;10.80;;;7.10;;
70532;SDS011;58088;51.186;17.130;2022-08-19T09:28:50;12.20;;;8.60;;
70532;SDS011;58088;51.186;17.130;2022-08-19T09:31:23;11.80;;;8.00;;
70532;SDS011;58088;51.186;17.130;2022-08-19T09:33:52;13.60;;;9.20;;
70532;SDS011;58088;51.186;17.130;2022-08-19T09:36:24;12.30;;;8.90;;
70532;SDS011;58088;51.186;17.130;2022-08-19T09:38:58;12.30;;;8.00;;
70532;SDS011;58088;51.186;17.130;2022-08-19T09:41:27;12.00;;;8.10;;
70532;SDS011;58088;51.186;17.130;2022-08-19T09:43:55;11.80;;;8.50;;
70532;SDS011;58088;51.186;17.130;2022-08-19T09:46:25;15.10;;;8.00;;
70532;SDS011;58088;51.186;17.130;2022-08-19T09:48:53;13.80;;;8.90;;
70532;SDS011;58088;51.186;17.130;2022-08-19T09:51:23;12.50;;;7.50;;
70532;SDS011;58088;51.186;17.130;2022-08-19T09:53:52;16.00;;;8.70;;
70532;SDS011;58088;51.186;17.130;2022-08-19T09:56:22;13.30;;;8.70;;
70532;SDS011;58088;51.186;17.130;2022-08-19T09:58:49;13.30;;;9.10;;
70532;SDS011;58088;51.186;17.130;2022-08-19T10:01:24;15.20;;;9.00;;
70532;SDS011;58088;51.186;17.130;2022-08-19T10:03:57;12.90;;;9.80;;
70532;SDS011;58088;51.186;17.130;2022-08-19T10:06:26;15.40;;;8.90;;
70532;SDS011;58088;51.186;17.130;2022-08-19T10:08:57;14.70;;;8.80;;
70532;SDS011;58088;51.186;17.130;2022-08-19T10:11:23;13.90;;;9.40;;
70532;SDS011;58088;51.186;17.130;2022-08-19T10:13:50;15.90;;;8.50;;
70532;SDS011;58088;51.186;17.130;2022-08-19T10:16:20;19.20;;;7.90;;
70532;SDS011;58088;51.186;17.130;2022-08-19T10:18:48;10.30;;;8.10;;
70532;SDS011;58088;51.186;17.130;2022-08-19T10:21:21;14.90;;;8.40;;
70532;SDS011;58088;51.186;17.130;2022-08-19T10:23:52;13.10;;;8.00;;
70532;SDS011;58088;51.186;17.130;2022-08-19T10:26:27;14.70;;;8.10;;
70532;SDS011;58088;51.186;17.130;2022-08-19T10:28:56;10.90;;;7.00;;
70532;SDS011;58088;51.186;17.130;2022-08-19T10:31:29;12.40;;;7.50;;
70532;SDS011;58088;51.186;17.130;2022-08-19T10:34:03;13.40;;;7.70;;
70532;SDS011;58088;51.186;17.130;2022-08-19T10:36:35;10.20;;;7.40;;
70532;SDS011;58088;51.186;17.130;2022-08-19T10:39:08;12.00;;;7.40;;
70532;SDS011;58088;51.186;17.130;2022-08-19T10:41:38;11.70;;;7.90;;
70532;SDS011;58088;51.186;17.130;2022-08-19T10:44:07;13.60;;;7.90;;
70532;SDS011;58088;51.186;17.130;2022-08-19T10:46:38;14.40;;;8.00;;
70532;SDS011;58088;51.186;17.130;2022-08-19T10:49:09;12.50;;;7.40;;
70532;SDS011;58088;51.186;17.130;2022-08-19T10:51:49;13.80;;;8.50;;
70532;SDS011;58088;51.186;17.130;2022-08-19T10:54:39;10.00;;;7.00;;
70532;SDS011;58088;51.186;17.130;2022-08-19T10:57:24;13.70;;;7.40;;
70532;SDS011;58088;51.186;17.130;2022-08-19T10:59:55;11.20;;;7.90;;
70532;SDS011;58088;51.186;17.130;2022-08-19T11:02:21;9.60;;;7.20;;
70532;SDS011;58088;51.186;17.130;2022-08-19T11:04:51;9.70;;;6.40;;
70532;SDS011;58088;51.186;17.130;2022-08-19T11:07:17;11.70;;;8.00;;
70532;SDS011;58088;51.186;17.130;2022-08-19T11:09:44;11.00;;;6.50;;
70532;SDS011;58088;51.186;17.130;2022-08-19T11:12:12;12.80;;;7.50;;
70532;SDS011;58088;51.186;17.130;2022-08-19T11:14:39;10.80;;;7.00;;
70532;SDS011;58088;51.186;17.130;2022-08-19T11:17:09;16.00;;;6.60;;
70532;SDS011;58088;51.186;17.130;2022-08-19T11:19:43;7.90;;;6.00;;
70532;SDS011;58088;51.186;17.130;2022-08-19T11:22:09;10.70;;;5.90;;
70532;SDS011;58088;51.186;17.130;2022-08-19T11:24:36;9.10;;;6.40;;
70532;SDS011;58088;51.186;17.130;2022-08-19T11:27:06;8.80;;;5.80;;
70532;SDS011;58088;51.186;17.130;2022-08-19T11:29:37;6.30;;;4.80;;
70532;SDS011;58088;51.186;17.130;2022-08-19T11:32:09;13.50;;;6.20;;
70532;SDS011;58088;51.186;17.130;2022-08-19T11:34:36;9.90;;;5.80;;
70532;SDS011;58088;51.186;17.130;2022-08-19T11:37:03;12.20;;;5.70;;
70532;SDS011;58088;51.186;17.130;2022-08-19T11:39:32;10.20;;;5.30;;
70532;SDS011;58088;51.186;17.130;2022-08-19T11:42:01;9.70;;;6.10;;
70532;SDS011;58088;51.186;17.130;2022-08-19T11:44:28;7.70;;;5.80;;
70532;SDS011;58088;51.186;17.130;2022-08-19T11:46:56;7.40;;;6.00;;
70532;SDS011;58088;51.186;17.130;2022-08-19T11:49:22;13.30;;;6.30;;
70532;SDS011;58088;51.186;17.130;2022-08-19T11:51:48;11.40;;;5.40;;
70532;SDS011;58088;51.186;17.130;2022-08-19T11:54:17;9.70;;;5.10;;
70532;SDS011;58088;51.186;17.130;2022-08-19T11:56:44;8.40;;;5.40;;
70532;SDS011;58088;51.186;17.130;2022-08-19T11:59:11;9.10;;;5.80;;
70532;SDS011;58088;51.186;17.130;2022-08-19T12:01:37;9.10;;;5.70;;
70532;SDS011;58088;51.186;17.130;2022-08-19T12:04:06;10.90;;;5.90;;
70532;SDS011;58088;51.186;17.130;2022-08-19T12:06:32;8.40;;;5.80;;
70532;SDS011;58088;51.186;17.130;2022-08-19T12:09:04;9.20;;;5.50;;
70532;SDS011;58088;51.186;17.130;2022-08-19T12:11:34;11.60;;;5.80;;
70532;SDS011;58088;51.186;17.130;2022-08-19T12:14:00;10.70;;;5.30;;
70532;SDS011;58088;51.186;17.130;2022-08-19T12:16:27;10.40;;;5.30;;
70532;SDS011;58088;51.186;17.130;2022-08-19T12:18:56;11.70;;;5.50;;
70532;SDS011;58088;51.186;17.130;2022-08-19T12:21:25;9.60;;;4.70;;
70532;SDS011;58088;51.186;17.130;2022-08-19T12:23:57;9.70;;;4.90;;
70532;SDS011;58088;51.186;17.130;2022-08-19T12:26:27;8.90;;;4.60;;
70532;SDS011;58088;51.186;17.130;2022-08-19T12:28:55;7.20;;;4.70;;
70532;SDS011;58088;51.186;17.130;2022-08-19T12:31:21;7.40;;;4.60;;
70532;SDS011;58088;51.186;17.130;2022-08-19T12:33:47;8.00;;;4.60;;
70532;SDS011;58088;51.186;17.130;2022-08-19T12:36:16;9.40;;;4.50;;
70532;SDS011;58088;51.186;17.130;2022-08-19T12:38:43;8.60;;;4.40;;
70532;SDS011;58088;51.186;17.130;2022-08-19T12:41:14;6.20;;;4.10;;
70532;SDS011;58088;51.186;17.130;2022-08-19T12:43:43;7.70;;;4.10;;
70532;SDS011;58088;51.186;17.130;2022-08-19T12:46:10;8.00;;;3.60;;
70532;SDS011;58088;51.186;17.130;2022-08-19T12:48:38;7.80;;;3.90;;
70532;SDS011;58088;51.186;17.130;2022-08-19T12:51:11;5.60;;;3.70;;
70532;SDS011;58088;51.186;17.130;2022-08-19T12:53:41;7.50;;;2.80;;
70532;SDS011;58088;51.186;17.130;2022-08-19T12:56:10;6.40;;;3.00;;
70532;SDS011;58088;51.186;17.130;2022-08-19T12:58:40;6.50;;;3.00;;
70532;SDS011;58088;51.186;17.130;2022-08-19T13:01:09;5.30;;;3.30;;
70532;SDS011;58088;51.186;17.130;2022-08-19T13:03:37;5.90;;;3.20;;
70532;SDS011;58088;51.186;17.130;2022-08-19T13:06:03;9.10;;;3.40;;
70532;SDS011;58088;51.186;17.130;2022-08-19T13:08:30;8.20;;;3.60;;
70532;SDS011;58088;51.186;17.130;2022-08-19T13:10:56;9.00;;;3.40;;
70532;SDS011;58088;51.186;17.130;2022-08-19T13:13:24;6.40;;;4.00;;
70532;SDS011;58088;51.186;17.130;2022-08-19T13:15:51;6.70;;;3.80;;
70532;SDS011;58088;51.186;17.130;2022-08-19T13:18:17;8.60;;;4.00;;
70532;SDS011;58088;51.186;17.130;2022-08-19T13:20:43;9.70;;;4.90;;
70532;SDS011;58088;51.186;17.130;2022-08-19T13:23:09;7.70;;;4.10;;
70532;SDS011;58088;51.186;17.130;2022-08-19T13:25:36;8.40;;;4.30;;
70532;SDS011;58088;51.186;17.130;2022-08-19T13:28:03;8.50;;;4.10;;
70532;SDS011;58088;51.186;17.130;2022-08-19T13:30:32;8.30;;;4.30;;
70532;SDS011;58088;51.186;17.130;2022-08-19T13:33:18;7.30;;;4.10;;
70532;SDS011;58088;51.186;17.130;2022-08-19T13:35:56;9.00;;;4.00;;
70532;SDS011;58088;51.186;17.130;2022-08-19T13:38:25;8.00;;;4.10;;
70532;SDS011;58088;51.186;17.130;2022-08-19T13:40:53;9.50;;;4.10;;
70532;SDS011;58088;51.186;17.130;2022-08-19T13:43:26;16.60;;;4.00;;
70532;SDS011;58088;51.186;17.130;2022-08-19T13:45:53;9.40;;;3.90;;
70532;SDS011;58088;51.186;17.130;2022-08-19T13:48:25;7.60;;;3.70;;
70532;SDS011;58088;51.186;17.130;2022-08-19T13:50:52;8.10;;;3.40;;
70532;SDS011;58088;51.186;17.130;2022-08-19T13:53:19;7.50;;;3.80;;
70532;SDS011;58088;51.186;17.130;2022-08-19T13:55:45;9.70;;;3.70;;
70532;SDS011;58088;51.186;17.130;2022-08-19T13:58:12;7.70;;;3.50;;
70532;SDS011;58088;51.186;17.130;2022-08-19T14:00:43;5.80;;;3.30;;
70532;SDS011;58088;51.186;17.130;2022-08-19T14:03:11;9.50;;;3.40;;
70532;SDS011;58088;51.186;17.130;2022-08-19T14:05:37;14.40;;;3.90;;
70532;SDS011;58088;51.186;17.130;2022-08-19T14:08:04;8.40;;;3.60;;
70532;SDS011;58088;51.186;17.130;2022-08-19T14:10:30;10.10;;;3.40;;
70532;SDS011;58088;51.186;17.130;2022-08-19T14:12:59;8.10;;;3.40;;
70532;SDS011;58088;51.186;17.130;2022-08-19T14:15:28;8.40;;;3.00;;
70532;SDS011;58088;51.186;17.130;2022-08-19T14:17:55;8.20;;;3.50;;
70532;SDS011;58088;51.186;17.130;2022-08-19T14:20:23;8.10;;;3.80;;
70532;SDS011;58088;51.186;17.130;2022-08-19T14:22:49;8.50;;;4.20;;
70532;SDS011;58088;51.186;17.130;2022-08-19T14:25:19;8.30;;;4.30;;
70532;SDS011;58088;51.186;17.130;2022-08-19T14:27:48;8.10;;;4.20;;
70532;SDS011;58088;51.186;17.130;2022-08-19T14:30:18;6.60;;;3.80;;
70532;SDS011;58088;51.186;17.130;2022-08-19T14:32:51;11.00;;;4.10;;
70532;SDS011;58088;51.186;17.130;2022-08-19T14:35:17;8.40;;;4.20;;
70532;SDS011;58088;51.186;17.130;2022-08-19T14:37:44;6.50;;;3.80;;
70532;SDS011;58088;51.186;17.130;2022-08-19T14:40:13;8.20;;;3.60;;
70532;SDS011;58088;51.186;17.130;2022-08-19T14:42:42;8.90;;;4.20;;
70532;SDS011;58088;51.186;17.130;2022-08-19T14:45:10;8.40;;;4.00;;
70532;SDS011;58088;51.186;17.130;2022-08-19T14:47:37;11.40;;;4.10;;